KG-0010 weather

Frunze Northwest Airport
Bishkek, Chuy Region, Kyrgyzstan

Public forecast

Using degrees Celsius for public forecast. Weather courtesy of forecast.io.

Closest aviation weather report (METAR) to Frunze Northwest Airport

Closest report is Manas International Airport, 8.9 nm (16.5 km) N. Retrieved 2019/10/24 04:30 UTC (0 seconds ago):

UCFM 240430Z 25002MPS 180V300 CAVOK 09/M01 Q1024 R08/0///95 NOSIG

Closest aviation forecast (TAF) to Frunze Northwest Airport

Closest forecast is Manas International Airport, 8.9 nm (16.5 km) N. Retrieved 2019-10-24 00:00 UTC (4 hours ago):

TAF UCFM 232241Z 2400/2424 14003G08MPS 4000 BR NSC TEMPO 2400/2404 1500 BR FU BECMG 2405/2406 32003G08MPS CAVOK BECMG 2414/2415 12003G08MPS 5000 BR